Time;durP1;ratioP1;P1;durP2;ratioP2;P2;SDS_P1;SDS_P2;PMS_P1;PMS_P2;Temp;Humidity;BMP_temperature;BMP_pressure;BME280_temperature;BME280_humidity;BME280_pressure;Samples;Min_cycle;Max_cycle;Signal;HPM_P1;HPM_P2
2020/12/14 08:01:34;;;;;;;25.65;4.40;;;;;;;10.83;100.00;99383.88;6196199;22;20029;-78
2020/12/14 09:59:46;;;;;;;38.08;6.80;;;;;;;11.09;100.00;99370.03;6219245;22;20024;-77
2020/12/14 10:02:12;;;;;;;40.38;8.13;;;;;;;11.13;100.00;99379.34;6144159;23;20009;-71
2020/12/14 10:04:37;;;;;;;33.80;8.75;;;;;;;11.16;100.00;99387.03;6168788;23;20452;-72
2020/12/14 10:07:03;;;;;;;38.85;8.00;;;;;;;11.19;100.00;99394.72;6193490;23;20422;-71
2020/12/14 10:09:28;;;;;;;35.83;7.13;;;;;;;11.22;100.00;99388.50;6220171;23;20004;-71
2020/12/14 10:11:55;;;;;;;29.23;7.55;;;;;;;11.24;100.00;99400.13;6220072;23;20005;-71
2020/12/14 10:14:21;;;;;;;46.13;8.07;;;;;;;11.26;100.00;99406.19;6168066;23;20464;-71
2020/12/14 10:16:49;;;;;;;31.13;6.72;;;;;;;11.29;100.00;99408.31;6220270;23;20012;-71
2020/12/14 10:19:15;;;;;;;42.40;7.80;;;;;;;11.31;100.00;99411.59;6220222;23;20034;-71
2020/12/14 10:21:41;;;;;;;30.45;7.32;;;;;;;11.35;100.00;99412.56;6219767;23;20008;-71
2020/12/14 10:24:07;;;;;;;35.60;6.97;;;;;;;11.35;100.00;99409.78;6192294;23;20062;-71
2020/12/14 10:26:33;;;;;;;42.38;8.02;;;;;;;11.40;100.00;99398.50;6193507;23;20008;-73
2020/12/14 10:28:59;;;;;;;35.15;7.72;;;;;;;11.42;100.00;99400.94;6219593;23;20005;-73
2020/12/14 10:31:24;;;;;;;31.48;7.00;;;;;;;11.46;100.00;99398.34;6218809;23;20329;-73
2020/12/14 10:33:50;;;;;;;48.03;14.93;;;;;;;11.48;100.00;99398.81;6219570;23;20410;-73
2020/12/14 10:36:18;;;;;;;45.78;11.55;;;;;;;11.51;100.00;99403.75;6193105;23;20004;-73
2020/12/14 10:38:45;;;;;;;31.92;8.02;;;;;;;11.52;100.00;99406.19;6220245;23;20008;-72
2020/12/14 10:41:10;;;;;;;41.38;8.80;;;;;;;11.56;100.00;99406.34;6219274;23;20004;-72
2020/12/14 10:43:36;;;;;;;35.53;7.20;;;;;;;11.58;100.00;99406.84;6192822;23;20562;-71
2020/12/14 10:46:01;;;;;;;36.33;7.65;;;;;;;11.61;100.00;99406.19;6193376;23;20035;-74
2020/12/14 10:48:27;;;;;;;40.78;8.30;;;;;;;11.63;100.00;99401.13;6193498;23;20009;-74
2020/12/14 10:50:52;;;;;;;32.75;6.80;;;;;;;11.66;100.00;99406.00;6219474;23;20008;-74
2020/12/14 10:53:18;;;;;;;29.73;7.63;;;;;;;11.69;100.00;99390.63;6193173;23;20406;-74
2020/12/14 10:55:43;;;;;;;31.92;7.43;;;;;;;11.71;100.00;99382.78;6192953;23;20430;-74
2020/12/14 10:58:09;;;;;;;33.55;6.65;;;;;;;11.74;100.00;99385.72;6219634;23;20016;-74
2020/12/14 11:00:35;;;;;;;32.03;7.40;;;;;;;11.75;100.00;99375.41;6193191;23;20418;-73
2020/12/14 11:03:00;;;;;;;33.15;7.47;;;;;;;11.78;100.00;99374.75;6193127;23;20005;-74
2020/12/14 11:05:26;;;;;;;34.92;7.43;;;;;;;11.81;100.00;99382.44;6193199;23;20460;-73
2020/12/14 11:07:54;;;;;;;31.08;6.57;;;;;;;11.82;100.00;99381.31;6193611;23;20009;-72
2020/12/14 11:10:19;;;;;;;28.67;6.05;;;;;;;11.85;100.00;99381.47;6219092;23;20372;-72
2020/12/14 11:12:45;;;;;;;30.75;7.15;;;;;;;11.88;100.00;99368.06;6192390;23;20080;-72
2020/12/14 11:15:10;;;;;;;34.35;6.90;;;;;;;11.90;100.00;99365.78;6219553;23;20016;-72
2020/12/14 11:30:26;;;;;;;29.73;6.72;;;;;;;12.07;100.00;99371.28;6218768;23;20021;-77
2020/12/14 15:27:43;;;;;;;25.65;10.90;;;;;;;11.40;99.44;99240.03;6102536;23;20018;-77
2020/12/14 15:43:30;;;;;;;16.77;7.00;;;;;;;11.27;99.71;99252.16;6220783;23;20044;-78
2020/12/14 15:46:31;;;;;;;26.65;7.22;;;;;;;11.23;99.84;99250.38;6219818;23;20008;-76
2020/12/14 15:49:15;;;;;;;15.25;6.18;;;;;;;11.19;99.55;99253.81;6128169;23;20012;-76
2020/12/14 16:07:57;;;;;;;;;;;;;;;;;;;;;
2020/12/14 16:44:02;;;;;;;18.83;5.28;;;;;;;10.80;100.00;99257.56;6218475;22;20032;-79
2020/12/14 18:00:14;;;;;;;17.92;3.03;;;;;;;10.44;100.00;99250.34;6158374;23;20029;-78
